ROMMA est une association bénévole à but non lucratif. Votre soutien est indispensable : ADHERER à ROMMA ou FAIRE un DON

Briord - (01, Ain)

Bugey (281 m)   Longitude: 05° 29' 13" E   Latitude: 45° 46' 37" N Station partenaire n°15
 

Détail journalier du     <<     >>

Température Precipitation Humidité Pression Vent Dir Rafale Dir. rafale Ensol.
Heure (°C) (mm) (%) (hPa) (km/h) (km/h) (min)
01:00 -1.808910251NE8NE0
02:00 -0.608610255NNO18N0
03:00 -0.908410253NNE18NNE0
04:00 -1.508410264NE15NNE0
05:00 -2.308610263ENE13NNE0
06:00 -2.4088102606E0
07:00 -2.6091102600---0
08:00 -3.10911026010ONO0
09:00 -3.3092102700---0
10:00 -2.1091102706O5
11:00 -1.308810282NO16NO20
12:00 0.508210289ONO24ONO35
13:00 1.6082102712NO24ONO50
14:00 2.3078102712ONO26ONO50
15:00 1.6082102813ONO26NO5
16:00 2.2078102811NO27NO60
17:00 1.408110286NO21NO30
18:00 1.308110285NO15NO0
19:00 1.208110295NO18NO0
20:00 0.708510291NO13ONO0
21:00 -0.1088103000---0
22:00 -0.3090103000---0
23:00 -0.3091103000---0
minuit -0.2091103000---0

Graphique du 11-01-2019

 

Serveur OMMA